sensor_id;sensor_type;location;lat;lon;timestamp;pressure;altitude;pressure_sealevel;temperature;humidity
23016;BME280;11674;52.428;13.584;2023-05-13T00:04:09;101739.94;;;16.87;39.73
23016;BME280;11674;52.428;13.584;2023-05-13T00:09:16;101729.69;;;16.83;39.80
23016;BME280;11674;52.428;13.584;2023-05-13T00:14:23;101730.63;;;16.78;39.76
23016;BME280;11674;52.428;13.584;2023-05-13T00:19:30;101731.22;;;16.75;40.13
23016;BME280;11674;52.428;13.584;2023-05-13T00:24:37;101726.75;;;16.74;39.96
23016;BME280;11674;52.428;13.584;2023-05-13T00:29:44;101726.47;;;16.76;40.05
23016;BME280;11674;52.428;13.584;2023-05-13T00:34:51;101734.31;;;16.74;39.93
23016;BME280;11674;52.428;13.584;2023-05-13T00:39:59;101743.28;;;16.76;40.21
23016;BME280;11674;52.428;13.584;2023-05-13T00:45:06;101752.81;;;16.75;40.25
23016;BME280;11674;52.428;13.584;2023-05-13T00:50:13;101744.41;;;16.75;40.06
23016;BME280;11674;52.428;13.584;2023-05-13T00:55:20;101751.47;;;16.72;40.33
23016;BME280;11674;52.428;13.584;2023-05-13T01:00:29;101755.16;;;16.68;40.65
23016;BME280;11674;52.428;13.584;2023-05-13T01:05:59;101751.94;;;16.61;40.73
23016;BME280;11674;52.428;13.584;2023-05-13T01:11:14;101758.22;;;16.53;40.84
23016;BME280;11674;52.428;13.584;2023-05-13T01:16:33;101765.91;;;16.47;40.98
23016;BME280;11674;52.428;13.584;2023-05-13T01:21:41;101772.72;;;16.41;40.91
23016;BME280;11674;52.428;13.584;2023-05-13T01:26:58;101770.28;;;16.35;41.23
23016;BME280;11674;52.428;13.584;2023-05-13T01:32:06;101783.91;;;16.23;41.50
23016;BME280;11674;52.428;13.584;2023-05-13T01:37:15;101778.75;;;16.11;41.58
23016;BME280;11674;52.428;13.584;2023-05-13T01:42:23;101785.34;;;16.02;41.85
23016;BME280;11674;52.428;13.584;2023-05-13T01:47:30;101786.78;;;15.99;41.70
23016;BME280;11674;52.428;13.584;2023-05-13T01:52:37;101792.72;;;15.93;42.10
23016;BME280;11674;52.428;13.584;2023-05-13T01:57:44;101784.97;;;15.90;41.87
23016;BME280;11674;52.428;13.584;2023-05-13T02:02:51;101789.47;;;15.86;42.13
23016;BME280;11674;52.428;13.584;2023-05-13T02:07:58;101796.06;;;15.76;42.27
23016;BME280;11674;52.428;13.584;2023-05-13T02:13:05;101794.69;;;15.74;42.20
23016;BME280;11674;52.428;13.584;2023-05-13T02:18:12;101794.75;;;15.69;42.70
23016;BME280;11674;52.428;13.584;2023-05-13T02:23:19;101797.00;;;15.67;42.63
23016;BME280;11674;52.428;13.584;2023-05-13T02:28:26;101792.00;;;15.64;42.76
23016;BME280;11674;52.428;13.584;2023-05-13T02:33:33;101794.81;;;15.64;42.76
23016;BME280;11674;52.428;13.584;2023-05-13T02:38:40;101795.34;;;15.66;42.50
23016;BME280;11674;52.428;13.584;2023-05-13T02:43:49;101797.63;;;15.64;42.86
23016;BME280;11674;52.428;13.584;2023-05-13T02:48:56;101798.75;;;15.63;42.85
23016;BME280;11674;52.428;13.584;2023-05-13T02:54:05;101805.22;;;15.58;42.76
23016;BME280;11674;52.428;13.584;2023-05-13T02:59:12;101806.69;;;15.51;42.67
23016;BME280;11674;52.428;13.584;2023-05-13T03:04:19;101804.88;;;15.41;42.89
23016;BME280;11674;52.428;13.584;2023-05-13T03:09:26;101808.84;;;15.35;42.78
23016;BME280;11674;52.428;13.584;2023-05-13T03:14:33;101811.72;;;15.25;43.05
23016;BME280;11674;52.428;13.584;2023-05-13T03:19:40;101804.81;;;15.18;42.89
23016;BME280;11674;52.428;13.584;2023-05-13T03:24:48;101809.31;;;15.14;43.01
23016;BME280;11674;52.428;13.584;2023-05-13T03:29:58;101816.94;;;15.08;43.07
23016;BME280;11674;52.428;13.584;2023-05-13T03:35:06;101819.25;;;15.01;43.26
23016;BME280;11674;52.428;13.584;2023-05-13T03:40:14;101822.34;;;15.00;43.62
23016;BME280;11674;52.428;13.584;2023-05-13T03:45:30;101826.84;;;14.96;43.57
23016;BME280;11674;52.428;13.584;2023-05-13T03:50:41;101838.31;;;14.94;43.62
23016;BME280;11674;52.428;13.584;2023-05-13T03:55:49;101838.31;;;14.94;43.80
23016;BME280;11674;52.428;13.584;2023-05-13T04:00:56;101842.50;;;14.92;43.73
23016;BME280;11674;52.428;13.584;2023-05-13T04:06:03;101843.03;;;14.99;44.26
23016;BME280;11674;52.428;13.584;2023-05-13T04:11:10;101855.97;;;15.18;44.23
23016;BME280;11674;52.428;13.584;2023-05-13T04:16:17;101859.97;;;15.64;43.94
23016;BME280;11674;52.428;13.584;2023-05-13T04:21:24;101864.72;;;16.11;44.12
23016;BME280;11674;52.428;13.584;2023-05-13T04:26:31;101857.91;;;16.59;43.85
23016;BME280;11674;52.428;13.584;2023-05-13T04:31:38;101878.03;;;16.79;43.33
23016;BME280;11674;52.428;13.584;2023-05-13T04:36:46;101864.47;;;16.68;43.79
23016;BME280;11674;52.428;13.584;2023-05-13T04:41:53;101872.66;;;16.46;43.58
23016;BME280;11674;52.428;13.584;2023-05-13T04:47:00;101885.94;;;16.17;43.73
23016;BME280;11674;52.428;13.584;2023-05-13T04:52:07;101895.03;;;16.04;43.71
23016;BME280;11674;52.428;13.584;2023-05-13T04:57:14;101886.41;;;16.00;43.79
23016;BME280;11674;52.428;13.584;2023-05-13T05:02:21;101898.50;;;15.96;43.86
23016;BME280;11674;52.428;13.584;2023-05-13T05:07:29;101890.69;;;15.93;43.89
23016;BME280;11674;52.428;13.584;2023-05-13T05:12:36;101899.09;;;15.93;43.88
23016;BME280;11674;52.428;13.584;2023-05-13T05:17:43;101894.56;;;15.97;43.91
23016;BME280;11674;52.428;13.584;2023-05-13T05:22:51;101901.25;;;16.01;43.60
23016;BME280;11674;52.428;13.584;2023-05-13T05:27:59;101907.84;;;16.10;43.72
23016;BME280;11674;52.428;13.584;2023-05-13T05:33:07;101910.44;;;16.25;43.47
23016;BME280;11674;52.428;13.584;2023-05-13T05:38:15;101907.19;;;16.41;43.60
23016;BME280;11674;52.428;13.584;2023-05-13T05:43:22;101910.06;;;16.55;43.36
23016;BME280;11674;52.428;13.584;2023-05-13T05:48:29;101910.66;;;16.70;43.25
23016;BME280;11674;52.428;13.584;2023-05-13T05:53:37;101917.19;;;16.84;42.70
23016;BME280;11674;52.428;13.584;2023-05-13T05:58:46;101917.84;;;16.95;42.72
23016;BME280;11674;52.428;13.584;2023-05-13T06:03:53;101920.41;;;17.10;42.67
23016;BME280;11674;52.428;13.584;2023-05-13T06:09:00;101916.00;;;17.22;42.49
23016;BME280;11674;52.428;13.584;2023-05-13T06:14:07;101906.22;;;17.38;42.30
23016;BME280;11674;52.428;13.584;2023-05-13T06:19:14;101908.00;;;17.48;42.10
23016;BME280;11674;52.428;13.584;2023-05-13T06:24:21;101907.00;;;17.57;41.77
23016;BME280;11674;52.428;13.584;2023-05-13T06:29:28;101913.22;;;17.68;41.31
23016;BME280;11674;52.428;13.584;2023-05-13T06:34:35;101905.97;;;17.80;41.17
23016;BME280;11674;52.428;13.584;2023-05-13T06:39:42;101902.66;;;17.92;40.98
23016;BME280;11674;52.428;13.584;2023-05-13T06:44:51;101897.84;;;18.06;40.92
23016;BME280;11674;52.428;13.584;2023-05-13T06:50:02;101890.47;;;18.23;40.66
23016;BME280;11674;52.428;13.584;2023-05-13T06:55:10;101889.31;;;18.38;40.06
23016;BME280;11674;52.428;13.584;2023-05-13T07:00:17;101892.94;;;18.52;39.84
23016;BME280;11674;52.428;13.584;2023-05-13T07:05:24;101888.34;;;18.69;39.64
23016;BME280;11674;52.428;13.584;2023-05-13T07:10:34;101884.75;;;18.77;39.23
23016;BME280;11674;52.428;13.584;2023-05-13T07:15:41;101877.72;;;18.88;39.01
23016;BME280;11674;52.428;13.584;2023-05-13T07:20:48;101878.50;;;19.02;38.67
23016;BME280;11674;52.428;13.584;2023-05-13T07:25:55;101872.16;;;19.19;38.25
23016;BME280;11674;52.428;13.584;2023-05-13T07:31:03;101870.63;;;19.35;38.11
23016;BME280;11674;52.428;13.584;2023-05-13T07:36:10;101864.59;;;19.50;37.57
23016;BME280;11674;52.428;13.584;2023-05-13T07:41:17;101861.22;;;19.70;37.43
23016;BME280;11674;52.428;13.584;2023-05-13T07:46:24;101856.69;;;19.91;37.18
23016;BME280;11674;52.428;13.584;2023-05-13T07:51:31;101863.34;;;20.03;36.76
23016;BME280;11674;52.428;13.584;2023-05-13T07:56:38;101852.97;;;20.21;36.80
23016;BME280;11674;52.428;13.584;2023-05-13T08:01:45;101853.84;;;20.38;36.57
23016;BME280;11674;52.428;13.584;2023-05-13T08:06:52;101849.69;;;20.53;36.33
23016;BME280;11674;52.428;13.584;2023-05-13T08:11:59;101860.00;;;20.66;36.05
23016;BME280;11674;52.428;13.584;2023-05-13T08:17:06;101856.88;;;20.67;36.04
23016;BME280;11674;52.428;13.584;2023-05-13T08:22:13;101863.16;;;20.64;35.82
23016;BME280;11674;52.428;13.584;2023-05-13T08:27:20;101863.16;;;20.73;35.83
23016;BME280;11674;52.428;13.584;2023-05-13T08:32:27;101868.50;;;20.91;35.47
23016;BME280;11674;52.428;13.584;2023-05-13T08:37:34;101866.50;;;21.00;35.11
23016;BME280;11674;52.428;13.584;2023-05-13T08:42:41;101869.47;;;21.12;35.24
23016;BME280;11674;52.428;13.584;2023-05-13T08:47:57;101866.13;;;21.27;34.46
23016;BME280;11674;52.428;13.584;2023-05-13T08:53:05;101874.59;;;21.36;34.38
23016;BME280;11674;52.428;13.584;2023-05-13T08:58:12;101861.44;;;21.48;34.37
23016;BME280;11674;52.428;13.584;2023-05-13T09:03:20;101855.25;;;21.63;33.69
23016;BME280;11674;52.428;13.584;2023-05-13T09:08:27;101860.34;;;21.78;33.48
23016;BME280;11674;52.428;13.584;2023-05-13T09:13:34;101846.63;;;21.97;32.80
23016;BME280;11674;52.428;13.584;2023-05-13T09:18:41;101839.50;;;22.20;32.21
23016;BME280;11674;52.428;13.584;2023-05-13T09:23:49;101849.13;;;22.28;32.26
23016;BME280;11674;52.428;13.584;2023-05-13T09:29:17;101833.03;;;22.49;31.36
23016;BME280;11674;52.428;13.584;2023-05-13T09:34:25;101841.03;;;22.67;31.17
23016;BME280;11674;52.428;13.584;2023-05-13T09:39:39;101840.81;;;22.72;30.25
23016;BME280;11674;52.428;13.584;2023-05-13T09:44:46;101832.69;;;22.71;30.47
23016;BME280;11674;52.428;13.584;2023-05-13T09:49:55;101840.28;;;22.79;30.39
23016;BME280;11674;52.428;13.584;2023-05-13T09:55:03;101827.56;;;22.85;29.98
23016;BME280;11674;52.428;13.584;2023-05-13T10:00:13;101831.63;;;22.96;29.89
23016;BME280;11674;52.428;13.584;2023-05-13T10:05:21;101811.28;;;23.14;29.19
23016;BME280;11674;52.428;13.584;2023-05-13T10:10:30;101812.09;;;23.35;29.05
23016;BME280;11674;52.428;13.584;2023-05-13T10:15:55;101804.09;;;23.49;28.59
23016;BME280;11674;52.428;13.584;2023-05-13T10:21:02;101822.34;;;23.40;28.53
23016;BME280;11674;52.428;13.584;2023-05-13T10:26:10;101819.06;;;23.50;27.86
23016;BME280;11674;52.428;13.584;2023-05-13T10:31:17;101794.63;;;23.45;27.26
23016;BME280;11674;52.428;13.584;2023-05-13T10:37:00;101799.97;;;23.71;27.30
23016;BME280;11674;52.428;13.584;2023-05-13T10:42:36;101794.44;;;24.10;27.24
23016;BME280;11674;52.428;13.584;2023-05-13T10:47:48;101804.72;;;24.27;26.90
23016;BME280;11674;52.428;13.584;2023-05-13T10:52:57;101797.22;;;24.46;26.72
23016;BME280;11674;52.428;13.584;2023-05-13T10:58:12;101791.66;;;24.50;26.28
23016;BME280;11674;52.428;13.584;2023-05-13T11:08:36;101773.38;;;24.75;25.88
23016;BME280;11674;52.428;13.584;2023-05-13T11:13:43;101776.06;;;24.83;25.53
23016;BME280;11674;52.428;13.584;2023-05-13T11:18:51;101796.44;;;24.73;25.31
23016;BME280;11674;52.428;13.584;2023-05-13T11:24:03;101778.41;;;24.81;25.45
23016;BME280;11674;52.428;13.584;2023-05-13T11:29:10;101764.47;;;25.04;25.41
23016;BME280;11674;52.428;13.584;2023-05-13T11:34:18;101778.41;;;25.09;25.12
23016;BME280;11674;52.428;13.584;2023-05-13T11:39:25;101771.78;;;25.05;24.67
23016;BME280;11674;52.428;13.584;2023-05-13T11:44:33;101774.91;;;25.27;24.50
23016;BME280;11674;52.428;13.584;2023-05-13T11:49:45;101766.47;;;25.46;24.33
23016;BME280;11674;52.428;13.584;2023-05-13T11:54:53;101756.19;;;25.73;24.33
23016;BME280;11674;52.428;13.584;2023-05-13T12:00:05;101757.47;;;26.06;23.83
23016;BME280;11674;52.428;13.584;2023-05-13T12:05:12;101759.69;;;26.32;23.51
23016;BME280;11674;52.428;13.584;2023-05-13T12:10:19;101755.56;;;26.29;23.22
23016;BME280;11674;52.428;13.584;2023-05-13T12:15:26;101755.88;;;26.43;23.50
23016;BME280;11674;52.428;13.584;2023-05-13T12:20:34;101761.31;;;26.67;23.43
23016;BME280;11674;52.428;13.584;2023-05-13T12:41:27;101755.28;;;26.53;23.75
23016;BME280;11674;52.428;13.584;2023-05-13T12:46:35;101765.22;;;26.59;23.16
23016;BME280;11674;52.428;13.584;2023-05-13T12:51:42;101760.66;;;26.39;23.43
23016;BME280;11674;52.428;13.584;2023-05-13T12:56:50;101746.88;;;26.41;23.43
23016;BME280;11674;52.428;13.584;2023-05-13T13:01:57;101749.13;;;26.51;23.12
23016;BME280;11674;52.428;13.584;2023-05-13T13:07:04;101749.06;;;27.05;22.95
23016;BME280;11674;52.428;13.584;2023-05-13T13:12:11;101744.34;;;27.57;22.67
23016;BME280;11674;52.428;13.584;2023-05-13T13:17:18;101731.19;;;27.98;22.74
23016;BME280;11674;52.428;13.584;2023-05-13T13:22:26;101726.06;;;27.36;22.71
23016;BME280;11674;52.428;13.584;2023-05-13T13:27:33;101744.88;;;26.99;23.07
23016;BME280;11674;52.428;13.584;2023-05-13T13:32:40;101744.97;;;27.25;22.82
23016;BME280;11674;52.428;13.584;2023-05-13T13:37:47;101736.78;;;27.91;22.75
23016;BME280;11674;52.428;13.584;2023-05-13T13:42:54;101728.56;;;27.86;22.50
23016;BME280;11674;52.428;13.584;2023-05-13T13:48:01;101744.16;;;27.05;22.86
23016;BME280;11674;52.428;13.584;2023-05-13T13:53:08;101737.50;;;26.98;22.87
23016;BME280;11674;52.428;13.584;2023-05-13T13:58:15;101731.59;;;26.49;23.27
23016;BME280;11674;52.428;13.584;2023-05-13T14:03:22;101715.53;;;26.41;23.34
23016;BME280;11674;52.428;13.584;2023-05-13T14:08:29;101703.66;;;26.55;22.75
23016;BME280;11674;52.428;13.584;2023-05-13T14:13:36;101696.66;;;26.90;22.91
23016;BME280;11674;52.428;13.584;2023-05-13T14:18:43;101709.50;;;27.45;22.64
23016;BME280;11674;52.428;13.584;2023-05-13T14:23:50;101709.13;;;27.95;22.39
23016;BME280;11674;52.428;13.584;2023-05-13T14:29:04;101703.84;;;27.97;22.45
23016;BME280;11674;52.428;13.584;2023-05-13T14:34:11;101700.03;;;27.86;22.16
23016;BME280;11674;52.428;13.584;2023-05-13T14:39:18;101687.09;;;27.95;22.48
23016;BME280;11674;52.428;13.584;2023-05-13T14:44:25;101699.16;;;28.11;22.06
23016;BME280;11674;52.428;13.584;2023-05-13T14:49:32;101703.88;;;27.26;22.24
23016;BME280;11674;52.428;13.584;2023-05-13T14:54:39;101698.72;;;27.12;22.22
23016;BME280;11674;52.428;13.584;2023-05-13T14:59:46;101700.56;;;27.24;22.28
23016;BME280;11674;52.428;13.584;2023-05-13T15:04:53;101694.03;;;27.46;22.07
23016;BME280;11674;52.428;13.584;2023-05-13T15:10:00;101704.09;;;27.40;22.18
23016;BME280;11674;52.428;13.584;2023-05-13T15:15:08;101707.00;;;27.17;22.50
23016;BME280;11674;52.428;13.584;2023-05-13T15:20:15;101701.63;;;27.16;22.20
23016;BME280;11674;52.428;13.584;2023-05-13T15:25:22;101707.91;;;26.83;22.47
23016;BME280;11674;52.428;13.584;2023-05-13T15:30:29;101704.84;;;26.54;22.79
23016;BME280;11674;52.428;13.584;2023-05-13T15:35:37;101711.28;;;26.32;22.94
23016;BME280;11674;52.428;13.584;2023-05-13T15:40:44;101730.13;;;25.86;23.31
23016;BME280;11674;52.428;13.584;2023-05-13T15:45:51;101739.97;;;25.27;24.27
23016;BME280;11674;52.428;13.584;2023-05-13T15:50:58;101745.28;;;24.85;24.86
23016;BME280;11674;52.428;13.584;2023-05-13T15:56:05;101743.06;;;24.39;25.77
23016;BME280;11674;52.428;13.584;2023-05-13T16:01:12;101755.09;;;23.97;26.47
23016;BME280;11674;52.428;13.584;2023-05-13T16:06:19;101749.78;;;23.83;26.93
23016;BME280;11674;52.428;13.584;2023-05-13T16:11:27;101752.72;;;23.87;27.13
23016;BME280;11674;52.428;13.584;2023-05-13T16:16:33;101771.16;;;23.93;27.25
23016;BME280;11674;52.428;13.584;2023-05-13T16:21:40;101781.53;;;23.77;27.42
23016;BME280;11674;52.428;13.584;2023-05-13T16:26:47;101776.44;;;23.58;27.64
23016;BME280;11674;52.428;13.584;2023-05-13T16:31:54;101781.88;;;23.63;27.93
23016;BME280;11674;52.428;13.584;2023-05-13T16:37:01;101780.34;;;23.66;27.97
23016;BME280;11674;52.428;13.584;2023-05-13T16:42:08;101773.03;;;23.65;27.97
23016;BME280;11674;52.428;13.584;2023-05-13T16:47:15;101762.91;;;23.52;28.28
23016;BME280;11674;52.428;13.584;2023-05-13T16:52:23;101768.16;;;23.29;28.39
23016;BME280;11674;52.428;13.584;2023-05-13T16:57:30;101778.81;;;23.12;28.59
23016;BME280;11674;52.428;13.584;2023-05-13T17:02:37;101781.97;;;22.98;28.79
23016;BME280;11674;52.428;13.584;2023-05-13T17:07:44;101781.72;;;22.71;29.31
23016;BME280;11674;52.428;13.584;2023-05-13T17:12:51;101784.84;;;22.57;29.52
23016;BME280;11674;52.428;13.584;2023-05-13T17:17:58;101781.16;;;22.36;29.63
23016;BME280;11674;52.428;13.584;2023-05-13T17:23:05;101786.56;;;22.29;30.08
23016;BME280;11674;52.428;13.584;2023-05-13T17:28:12;101783.78;;;22.21;29.77
23016;BME280;11674;52.428;13.584;2023-05-13T17:33:19;101781.91;;;22.04;30.46
23016;BME280;11674;52.428;13.584;2023-05-13T17:38:26;101786.66;;;21.92;30.46
23016;BME280;11674;52.428;13.584;2023-05-13T17:43:33;101786.72;;;21.75;30.58
23016;BME280;11674;52.428;13.584;2023-05-13T17:48:41;101774.81;;;21.61;31.13
23016;BME280;11674;52.428;13.584;2023-05-13T17:53:47;101775.72;;;21.44;31.13
23016;BME280;11674;52.428;13.584;2023-05-13T17:58:54;101786.38;;;21.30;31.46
23016;BME280;11674;52.428;13.584;2023-05-13T18:04:01;101794.59;;;21.15;31.76
23016;BME280;11674;52.428;13.584;2023-05-13T18:09:08;101785.31;;;20.97;31.98
23016;BME280;11674;52.428;13.584;2023-05-13T18:14:22;101795.28;;;20.86;32.17
23016;BME280;11674;52.428;13.584;2023-05-13T18:19:29;101787.34;;;20.80;32.17
23016;BME280;11674;52.428;13.584;2023-05-13T18:24:37;101784.84;;;20.78;32.54
23016;BME280;11674;52.428;13.584;2023-05-13T18:29:45;101788.47;;;20.70;32.54
23016;BME280;11674;52.428;13.584;2023-05-13T18:34:51;101795.63;;;20.59;32.94
23016;BME280;11674;52.428;13.584;2023-05-13T18:39:58;101792.81;;;20.51;33.05
23016;BME280;11674;52.428;13.584;2023-05-13T18:45:06;101797.78;;;20.37;33.08
23016;BME280;11674;52.428;13.584;2023-05-13T18:50:12;101799.59;;;20.24;33.84
23016;BME280;11674;52.428;13.584;2023-05-13T18:55:20;101798.41;;;20.08;33.75
23016;BME280;11674;52.428;13.584;2023-05-13T19:00:26;101802.28;;;19.82;34.11
23016;BME280;11674;52.428;13.584;2023-05-13T19:05:33;101804.69;;;19.58;34.66
23016;BME280;11674;52.428;13.584;2023-05-13T19:10:40;101805.75;;;19.40;35.13
23016;BME280;11674;52.428;13.584;2023-05-13T19:15:47;101808.28;;;19.19;35.54
23016;BME280;11674;52.428;13.584;2023-05-13T19:20:54;101817.31;;;19.08;35.78
23016;BME280;11674;52.428;13.584;2023-05-13T19:26:01;101818.84;;;18.92;35.71
23016;BME280;11674;52.428;13.584;2023-05-13T19:31:08;101814.25;;;18.74;36.20
23016;BME280;11674;52.428;13.584;2023-05-13T19:36:15;101829.53;;;18.59;36.47
23016;BME280;11674;52.428;13.584;2023-05-13T19:41:22;101831.63;;;18.54;36.86
23016;BME280;11674;52.428;13.584;2023-05-13T19:46:45;101831.84;;;18.44;37.20
23016;BME280;11674;52.428;13.584;2023-05-13T19:51:52;101833.78;;;18.35;37.32
23016;BME280;11674;52.428;13.584;2023-05-13T19:56:59;101828.97;;;18.22;37.44
23016;BME280;11674;52.428;13.584;2023-05-13T20:02:07;101827.84;;;17.96;38.12
23016;BME280;11674;52.428;13.584;2023-05-13T20:07:13;101836.84;;;17.71;38.53
23016;BME280;11674;52.428;13.584;2023-05-13T20:12:20;101832.53;;;17.46;38.84
23016;BME280;11674;52.428;13.584;2023-05-13T20:17:28;101837.06;;;17.29;39.50
23016;BME280;11674;52.428;13.584;2023-05-13T20:22:35;101840.22;;;17.09;40.10
23016;BME280;11674;52.428;13.584;2023-05-13T20:27:42;101840.78;;;16.92;40.39
23016;BME280;11674;52.428;13.584;2023-05-13T20:32:49;101836.50;;;16.81;40.58
23016;BME280;11674;52.428;13.584;2023-05-13T20:37:56;101842.03;;;16.68;41.13
23016;BME280;11674;52.428;13.584;2023-05-13T20:43:03;101836.38;;;16.54;41.61
23016;BME280;11674;52.428;13.584;2023-05-13T20:48:10;101840.28;;;16.35;41.87
23016;BME280;11674;52.428;13.584;2023-05-13T20:53:17;101844.66;;;16.22;42.30
23016;BME280;11674;52.428;13.584;2023-05-13T20:58:25;101837.69;;;16.20;42.87
23016;BME280;11674;52.428;13.584;2023-05-13T21:03:31;101836.75;;;16.29;42.74
23016;BME280;11674;52.428;13.584;2023-05-13T21:08:38;101842.47;;;16.43;43.21
23016;BME280;11674;52.428;13.584;2023-05-13T21:13:46;101835.63;;;16.49;43.14
23016;BME280;11674;52.428;13.584;2023-05-13T21:18:53;101822.53;;;16.44;43.81
23016;BME280;11674;52.428;13.584;2023-05-13T21:24:00;101823.16;;;16.41;43.90
23016;BME280;11674;52.428;13.584;2023-05-13T21:29:07;101835.63;;;16.49;44.34
23016;BME280;11674;52.428;13.584;2023-05-13T21:34:14;101828.91;;;16.50;44.34
23016;BME280;11674;52.428;13.584;2023-05-13T21:39:21;101827.94;;;16.36;44.81
23016;BME280;11674;52.428;13.584;2023-05-13T21:44:28;101831.50;;;16.23;45.15
23016;BME280;11674;52.428;13.584;2023-05-13T21:49:35;101827.13;;;16.17;45.55
23016;BME280;11674;52.428;13.584;2023-05-13T21:54:42;101826.72;;;16.05;45.76
23016;BME280;11674;52.428;13.584;2023-05-13T21:59:49;101838.38;;;15.93;46.42
23016;BME280;11674;52.428;13.584;2023-05-13T22:04:56;101831.41;;;15.91;46.44
23016;BME280;11674;52.428;13.584;2023-05-13T22:10:04;101831.88;;;15.74;46.49
23016;BME280;11674;52.428;13.584;2023-05-13T22:15:11;101823.31;;;15.66;47.08
23016;BME280;11674;52.428;13.584;2023-05-13T22:20:17;101820.56;;;15.61;47.10
23016;BME280;11674;52.428;13.584;2023-05-13T22:25:24;101820.28;;;15.62;47.10
23016;BME280;11674;52.428;13.584;2023-05-13T22:30:31;101817.72;;;15.66;47.04
23016;BME280;11674;52.428;13.584;2023-05-13T22:35:38;101816.91;;;15.65;47.05
23016;BME280;11674;52.428;13.584;2023-05-13T22:40:45;101816.41;;;15.58;47.15
23016;BME280;11674;52.428;13.584;2023-05-13T22:45:52;101818.13;;;15.54;47.22
23016;BME280;11674;52.428;13.584;2023-05-13T22:50:59;101813.16;;;15.51;47.56
23016;BME280;11674;52.428;13.584;2023-05-13T22:56:06;101810.16;;;15.43;47.87
23016;BME280;11674;52.428;13.584;2023-05-13T23:01:14;101814.75;;;15.34;47.94
23016;BME280;11674;52.428;13.584;2023-05-13T23:06:20;101817.59;;;15.24;48.14
23016;BME280;11674;52.428;13.584;2023-05-13T23:11:27;101802.69;;;15.10;48.39
23016;BME280;11674;52.428;13.584;2023-05-13T23:16:34;101799.31;;;15.08;48.62
23016;BME280;11674;52.428;13.584;2023-05-13T23:21:41;101797.09;;;15.10;48.50
23016;BME280;11674;52.428;13.584;2023-05-13T23:26:48;101796.47;;;15.13;48.56
23016;BME280;11674;52.428;13.584;2023-05-13T23:31:55;101801.25;;;15.12;48.76
23016;BME280;11674;52.428;13.584;2023-05-13T23:37:03;101794.88;;;15.07;48.94
23016;BME280;11674;52.428;13.584;2023-05-13T23:42:09;101792.47;;;14.95;49.41
23016;BME280;11674;52.428;13.584;2023-05-13T23:47:22;101799.53;;;14.88;49.73
23016;BME280;11674;52.428;13.584;2023-05-13T23:52:31;101790.59;;;14.86;49.63
23016;BME280;11674;52.428;13.584;2023-05-13T23:57:38;101782.78;;;14.88;49.87
